Flight Track Log - Related Links

Times and Time Zones

All times are in EDT time to prevent confusion due to time zone crossing. See the UCA4815 flight status page for this flight to view local times or setup timezone preferences in your user account.

Time Position Orientation Groundspeed Altitude Reporting Facility
EDT Latitude Longitude Course Direction KTS MPH feet Rate Location/Type
Thu 10:00:00 PM 40.9888 -74.5333 317° Northwest  Level Estimated
Thu 10:01:00 PM 41.0310 -74.5857 317° Northwest  Level Estimated
Thu 10:02:00 PM 41.0732 -74.6381 317° Northwest  Level Estimated
Thu 10:03:00 PM 41.1154 -74.6906 317° Northwest  Level Estimated
Thu 10:04:00 PM 41.1575 -74.7432 317° Northwest  Level Estimated
Thu 10:05:00 PM 41.1997 -74.7958 317° Northwest  Level Estimated
Thu 10:06:00 PM 41.2418 -74.8485 317° Northwest  Level Estimated
Thu 10:07:00 PM 41.2839 -74.9013 317° Northwest  Level Estimated
Thu 10:08:00 PM 41.3259 -74.9541 317° Northwest  Level Estimated
Thu 10:09:00 PM 41.3680 -75.0070 317° Northwest  Level Estimated
Thu 10:10:00 PM 41.4100 -75.0600 317° Northwest  Level Estimated
Thu 10:11:00 PM 41.4520 -75.1130 317° Northwest  Level Estimated
Thu 10:12:00 PM 41.4939 -75.1661 317° Northwest  Level Estimated
Thu 10:13:00 PM 41.5359 -75.2193 317° Northwest  Level Estimated
Thu 10:14:00 PM 41.5778 -75.2725 316° Northwest  Level Estimated
Thu 10:15:00 PM 41.6197 -75.3258 316° Northwest  Level Estimated
Thu 10:16:00 PM 41.6615 -75.3792 316° Northwest  Level Estimated
Thu 10:17:00 PM 41.7034 -75.4327 316° Northwest  Level Estimated
Thu 10:18:00 PM 41.7452 -75.4862 316° Northwest  Level Estimated
Thu 10:19:00 PM 41.7870 -75.5398 316° Northwest  Level Estimated
Thu 10:20:00 PM 41.8288 -75.5934 316° Northwest  Level Estimated
Thu 10:21:00 PM 41.8705 -75.6472 316° Northwest  Level Estimated
Thu 10:22:00 PM 41.9122 -75.7010 316° Northwest  Level Estimated
Thu 10:23:00 PM 41.9539 -75.7548 316° Northwest  Level Estimated
Thu 10:24:00 PM 41.9956 -75.8088 316° Northwest  Level Estimated
Thu 10:25:00 PM 42.0372 -75.8628 316° Northwest  Level Estimated
Thu 10:26:00 PM 42.0788 -75.9169 316° Northwest  Level Estimated
Thu 10:27:00 PM 42.1204 -75.9710 316° Northwest  Level Estimated
Thu 10:28:00 PM 42.1620 -76.0253 316° Northwest  Level Estimated
Thu 10:29:00 PM 42.2035 -76.0796 316° Northwest  Level Estimated
Thu 10:30:00 PM 42.2450 -76.1339 316° Northwest  Level Estimated
Thu 10:31:00 PM 42.2865 -76.1884 316° Northwest  Level Estimated
Thu 10:32:00 PM 42.3280 -76.2429 316° Northwest  Level Estimated
Thu 10:33:00 PM 42.3694 -76.2975 316° Northwest  Level Estimated
Thu 10:34:00 PM 42.4109 -76.3521 316° Northwest  Level Estimated
Thu 10:35:00 PM 42.4522 -76.4069 316° Northwest  Level Estimated
Thu 10:36:00 PM 42.4914 -76.4587 316° Northwest  Level Estimated
Thu 10:37:00 PM 42.4914 -76.4587 304° West  Level Estimated
Thu 10:38:00 PM 42.4914 -76.4587 304° West  Level Estimated
Thu 10:39:00 PM 42.4914 -76.4587 304° West  Level Estimated
Thu 10:40:00 PM 42.4914 -76.4587 304° West  Level Estimated

Login

Don't have an account? Register now (free) for customized features, flight alerts, and more!